Time;durP1;ratioP1;P1;durP2;ratioP2;P2;SDS_P1;SDS_P2;PMS_P1;PMS_P2;Temp;Humidity;BMP_temperature;BMP_pressure;BME280_temperature;BME280_humidity;BME280_pressure;Samples;Min_cycle;Max_cycle;Signal;HPM_P1;HPM_P2
2023/01/01 00:01:44;;;;;;;11.98;4.68;;;16.40;1.00;;;;;;5098659;28;20225;-82
2023/01/01 00:04:12;;;;;;;10.48;4.82;;;16.40;1.00;;;;;;5094519;28;20189;-82
2023/01/01 00:06:41;;;;;;;12.23;4.20;;;16.40;1.00;;;;;;5095117;28;20200;-80
2023/01/01 00:11:52;;;;;;;10.93;4.20;;;16.50;1.00;;;;;;5090700;28;20217;-81
2023/01/01 00:14:19;;;;;;;16.23;4.35;;;16.50;1.00;;;;;;5093057;28;20750;-82
2023/01/01 00:16:46;;;;;;;10.38;3.75;;;16.60;1.00;;;;;;5093103;28;20886;-82
2023/01/01 00:19:13;;;;;;;12.15;3.83;;;16.50;1.00;;;;;;5093291;28;20544;-82
2023/01/01 00:21:41;;;;;;;10.13;3.83;;;16.50;1.00;;;;;;5093028;28;20229;-82
2023/01/01 00:24:08;;;;;;;8.82;3.42;;;16.50;1.00;;;;;;5093707;28;22141;-81
2023/01/01 00:26:35;;;;;;;12.63;3.80;;;16.60;1.00;;;;;;5093919;28;20193;-81
2023/01/01 00:29:02;;;;;;;9.85;4.25;;;16.60;1.00;;;;;;5093232;28;20201;-81
2023/01/01 00:31:29;;;;;;;10.43;3.80;;;16.60;1.00;;;;;;5093070;28;20221;-81
2023/01/01 00:33:56;;;;;;;10.32;3.70;;;16.50;1.00;;;;;;5096160;28;20664;-82
2023/01/01 00:36:26;;;;;;;8.43;3.38;;;16.60;1.00;;;;;;5097563;28;20662;-81
2023/01/01 00:38:54;;;;;;;8.23;3.97;;;16.60;1.00;;;;;;5097521;28;20201;-81
2023/01/01 00:41:22;;;;;;;9.43;3.53;;;16.60;1.00;;;;;;5097121;28;20701;-81
2023/01/01 00:43:49;;;;;;;11.15;3.97;;;16.70;1.00;;;;;;5097006;28;20288;-81
2023/01/01 00:46:16;;;;;;;9.88;3.33;;;16.80;1.00;;;;;;5097042;28;20194;-81
2023/01/01 00:48:42;;;;;;;10.60;3.05;;;16.60;1.00;;;;;;5097678;28;20296;-82
2023/01/01 00:51:10;;;;;;;6.47;3.17;;;16.70;1.00;;;;;;5097275;28;20558;-82
2023/01/01 00:53:37;;;;;;;8.23;3.40;;;16.90;1.00;;;;;;5106346;28;20217;-81
2023/01/01 00:56:06;;;;;;;12.40;4.03;;;16.60;1.00;;;;;;5118290;28;20696;-82
2023/01/01 00:58:33;;;;;;;7.63;2.92;;;16.70;26.20;;;;;;5103861;28;20194;-81
2023/01/01 01:01:00;;;;;;;7.65;2.80;;;16.50;42.30;;;;;;5097832;28;20289;-82
2023/01/01 01:03:30;;;;;;;6.05;2.70;;;16.90;27.00;;;;;;5102250;28;20678;-81
2023/01/01 01:05:58;;;;;;;11.02;3.03;;;16.80;29.30;;;;;;5117797;28;20216;-81
2023/01/01 01:08:25;;;;;;;9.57;3.15;;;16.80;37.10;;;;;;5097128;28;20216;-81
2023/01/01 01:10:52;;;;;;;8.00;3.20;;;16.70;35.00;;;;;;5107294;28;20658;-81
2023/01/01 01:13:21;;;;;;;8.52;2.88;;;16.70;51.80;;;;;;5117060;28;20243;-81
2023/01/01 01:15:48;;;;;;;7.82;2.97;;;16.70;43.00;;;;;;5117124;28;20295;-81
2023/01/01 01:18:15;;;;;;;8.38;3.40;;;16.60;46.70;;;;;;5117667;28;20356;-81
2023/01/01 01:20:49;;;;;;;11.05;3.40;;;16.70;44.40;;;;;;5076936;28;20230;-81
2023/01/01 01:23:16;;;;;;;7.93;3.53;;;16.70;57.50;;;;;;5075846;28;20247;-81
2023/01/01 01:25:43;;;;;;;9.95;3.30;;;16.60;35.70;;;;;;5076469;28;20234;-82
2023/01/01 01:28:10;;;;;;;11.77;3.50;;;16.60;47.00;;;;;;5076442;28;20206;-81
2023/01/01 01:30:39;;;;;;;5.07;3.15;;;16.70;39.40;;;;;;5076507;28;20351;-81
2023/01/01 01:33:05;;;;;;;9.57;3.70;;;16.80;9.90;;;;;;5076226;28;20225;-82
2023/01/01 01:35:32;;;;;;;9.75;3.75;;;16.90;1.00;;;;;;5089736;28;20732;-82
2023/01/01 01:37:59;;;;;;;12.95;3.83;;;16.70;1.00;;;;;;5103952;28;20251;-81
2023/01/01 01:40:26;;;;;;;8.15;3.22;;;16.60;1.00;;;;;;5110838;28;20194;-81
2023/01/01 01:42:53;;;;;;;9.38;3.72;;;16.80;4.20;;;;;;5103775;28;20290;-81
2023/01/01 01:45:20;;;;;;;7.00;3.00;;;16.70;4.10;;;;;;5104284;28;20201;-81
2023/01/01 01:47:51;;;;;;;10.35;3.30;;;16.50;2.60;;;;;;5109129;28;20264;-81
2023/01/01 01:50:23;;;;;;;9.82;3.08;;;16.60;5.10;;;;;;5116183;28;20231;-81
2023/01/01 01:53:00;;;;;;;14.27;3.97;;;16.60;7.60;;;;;;5095660;28;20222;-80
2023/01/01 01:55:30;;;;;;;9.27;3.75;;;16.80;9.60;;;;;;5098390;28;20683;-81
2023/01/01 01:57:58;;;;;;;9.77;3.63;;;16.80;6.10;;;;;;5099926;28;20202;-81
2023/01/01 02:00:24;;;;;;;5.40;3.17;;;16.60;5.10;;;;;;5092400;28;20285;-81
2023/01/01 02:02:56;;;;;;;7.97;3.50;;;16.50;14.60;;;;;;5105346;28;20240;-82
2023/01/01 02:05:24;;;;;;;11.48;3.60;;;16.40;1.00;;;;;;5115033;28;20197;-81
2023/01/01 02:07:53;;;;;;;9.80;3.33;;;16.50;1.70;;;;;;5103590;28;20292;-81
2023/01/01 02:10:20;;;;;;;9.05;3.53;;;16.50;11.70;;;;;;5095915;28;20198;-82
2023/01/01 02:12:48;;;;;;;7.93;3.40;;;16.40;6.50;;;;;;5088379;28;20252;-82
2023/01/01 02:15:15;;;;;;;11.90;4.63;;;16.50;10.60;;;;;;5094589;28;20213;-82
2023/01/01 02:17:52;;;;;;;9.88;3.85;;;16.40;8.40;;;;;;5114406;28;20621;-82
2023/01/01 02:20:29;;;;;;;10.57;3.78;;;16.30;1.40;;;;;;5098203;28;20199;-81
2023/01/01 02:23:26;;;;;;;9.18;4.05;;;16.20;1.00;;;;;;5098288;28;20606;-81
2023/01/01 02:26:37;;;;;;;10.77;4.05;;;16.30;1.10;;;;;;5115725;28;20638;-81
2023/01/01 02:29:15;;;;;;;9.07;3.90;;;16.20;10.80;;;;;;5075076;28;20198;-82
2023/01/01 02:31:47;;;;;;;8.52;3.92;;;16.30;10.00;;;;;;5072618;28;20226;-81
2023/01/01 02:34:18;;;;;;;9.18;4.20;;;16.20;5.40;;;;;;5074933;28;20222;-82
2023/01/01 02:36:49;;;;;;;11.23;4.57;;;16.30;1.00;;;;;;5087998;28;20202;-82
2023/01/01 02:39:19;;;;;;;9.93;4.22;;;16.20;11.50;;;;;;5105993;28;20220;-82
2023/01/01 02:41:50;;;;;;;12.77;4.00;;;16.10;11.00;;;;;;5108772;27;20704;-81
2023/01/01 02:44:19;;;;;;;9.45;4.18;;;16.20;5.20;;;;;;5115370;28;20197;-81
2023/01/01 02:46:46;;;;;;;11.25;4.30;;;16.10;9.70;;;;;;5115054;28;20208;-82
2023/01/01 02:49:13;;;;;;;11.70;4.22;;;16.10;1.00;;;;;;5100816;28;20194;-82
2023/01/01 02:51:54;;;;;;;14.60;4.00;;;16.20;3.10;;;;;;5110368;28;20232;-82
2023/01/01 02:54:30;;;;;;;10.93;3.70;;;16.20;8.20;;;;;;5086640;28;20255;-82
2023/01/01 02:57:05;;;;;;;6.50;3.45;;;16.10;1.00;;;;;;5092058;28;20229;-81
2023/01/01 03:02:36;;;;;;;9.60;4.03;;;16.00;1.00;;;;;;5074520;28;20233;-82
2023/01/01 03:05:08;;;;;;;6.88;3.00;;;15.80;1.00;;;;;;5086586;28;20194;-81
2023/01/01 03:07:41;;;;;;;10.88;3.53;;;15.70;4.50;;;;;;5101436;28;20228;-81
2023/01/01 03:10:14;;;;;;;8.98;3.25;;;15.60;1.00;;;;;;5093749;28;20212;-81
2023/01/01 03:12:46;;;;;;;12.75;3.58;;;15.60;1.00;;;;;;5097104;28;20217;-81
2023/01/01 03:15:23;;;;;;;7.45;3.10;;;15.70;1.00;;;;;;5102937;28;20249;-82
2023/01/01 03:17:57;;;;;;;8.07;3.20;;;16.00;1.00;;;;;;5092032;28;20578;-81
2023/01/01 03:20:29;;;;;;;9.70;3.42;;;15.80;1.00;;;;;;5075044;28;20210;-82
2023/01/01 03:23:02;;;;;;;11.57;3.53;;;15.80;1.00;;;;;;5088420;28;20223;-81
2023/01/01 03:25:33;;;;;;;8.43;3.92;;;15.80;1.00;;;;;;5092236;28;20208;-81
2023/01/01 03:28:04;;;;;;;6.70;3.30;;;15.60;1.00;;;;;;5096559;28;20866;-82
2023/01/01 03:30:36;;;;;;;8.30;3.53;;;15.60;1.00;;;;;;5075564;28;20187;-81
2023/01/01 03:33:08;;;;;;;9.93;3.17;;;15.70;1.00;;;;;;5076550;28;20218;-81
2023/01/01 03:35:40;;;;;;;7.82;3.40;;;15.60;1.00;;;;;;5108395;28;20236;-81
2023/01/01 03:38:11;;;;;;;9.13;3.30;;;15.50;1.00;;;;;;5115049;28;20261;-81
2023/01/01 03:40:39;;;;;;;10.45;3.00;;;15.50;1.00;;;;;;5096403;28;20186;-81
2023/01/01 03:43:11;;;;;;;7.93;3.15;;;15.60;1.00;;;;;;5093231;28;20308;-81
2023/01/01 03:45:43;;;;;;;9.70;3.17;;;15.60;1.00;;;;;;5101422;28;20649;-81
2023/01/01 03:48:11;;;;;;;12.52;4.07;;;15.60;1.00;;;;;;5110304;28;20280;-81
2023/01/01 03:50:47;;;;;;;8.85;3.40;;;15.50;1.00;;;;;;5094387;28;20209;-81
2023/01/01 03:53:26;;;;;;;7.75;3.22;;;15.60;1.00;;;;;;5086941;28;20320;-81
2023/01/01 03:56:01;;;;;;;8.82;3.15;;;15.60;1.00;;;;;;5074054;28;20207;-81
2023/01/01 03:58:35;;;;;;;9.57;3.53;;;15.50;1.00;;;;;;5077971;28;20949;-86
2023/01/01 04:01:08;;;;;;;8.80;3.35;;;15.60;1.00;;;;;;5078441;28;20199;-85
2023/01/01 04:03:38;;;;;;;7.00;3.13;;;15.50;1.00;;;;;;5085641;28;20202;-87
2023/01/01 04:06:05;;;;;;;6.13;2.72;;;15.40;1.00;;;;;;5093016;28;20239;-86
2023/01/01 04:08:33;;;;;;;9.30;3.13;;;15.60;1.00;;;;;;5095105;28;20570;-86
2023/01/01 04:12:00;;;;;;;6.28;3.10;;;15.60;3.30;;;;;;5090989;28;20755;-85
2023/01/01 04:13:51;;;;;;;9.20;3.28;;;15.50;2.30;;;;;;5091953;28;20197;-86
2023/01/01 04:16:19;;;;;;;8.82;2.97;;;15.50;4.70;;;;;;5092266;28;20209;-86
2023/01/01 04:18:46;;;;;;;8.90;3.47;;;15.50;3.30;;;;;;5092545;28;20223;-86
2023/01/01 04:21:13;;;;;;;8.10;3.15;;;15.60;4.20;;;;;;5089827;28;20288;-85
2023/01/01 04:23:40;;;;;;;5.88;2.72;;;15.50;6.30;;;;;;5089717;28;20198;-86
2023/01/01 04:26:12;;;;;;;8.35;3.00;;;15.40;7.80;;;;;;5090317;28;20280;-86
2023/01/01 04:28:40;;;;;;;8.70;3.38;;;15.40;13.30;;;;;;5091594;28;20221;-86
2023/01/01 04:31:07;;;;;;;10.20;3.10;;;15.20;4.90;;;;;;5091388;28;20213;-86
2023/01/01 04:33:35;;;;;;;6.85;3.00;;;15.20;6.40;;;;;;5100298;28;20710;-86
2023/01/01 04:36:04;;;;;;;8.00;3.30;;;15.20;1.00;;;;;;5112070;28;20227;-85
2023/01/01 04:38:33;;;;;;;7.85;2.90;;;15.20;27.30;;;;;;5111569;28;20295;-86
2023/01/01 04:41:01;;;;;;;6.60;2.97;;;15.10;1.00;;;;;;5091799;28;20702;-85
2023/01/01 04:43:28;;;;;;;6.45;2.72;;;15.10;25.60;;;;;;5096294;28;20229;-86
2023/01/01 04:45:56;;;;;;;7.30;2.65;;;15.20;1.00;;;;;;5091651;28;20197;-85
2023/01/01 04:48:23;;;;;;;5.63;2.80;;;15.00;1.70;;;;;;5089640;28;20571;-85
2023/01/01 04:50:56;;;;;;;4.78;2.30;;;15.20;27.20;;;;;;5111344;28;20209;-86
2023/01/01 04:53:23;;;;;;;6.75;2.78;;;15.10;27.10;;;;;;5105514;28;20220;-85
2023/01/01 04:55:50;;;;;;;8.35;2.90;;;15.30;22.40;;;;;;5091787;28;20271;-86
2023/01/01 04:58:17;;;;;;;8.07;2.60;;;15.10;23.20;;;;;;5101240;28;20189;-86
2023/01/01 05:00:44;;;;;;;10.02;2.90;;;15.10;24.10;;;;;;5110447;28;20740;-86
2023/01/01 05:03:10;;;;;;;4.55;2.88;;;15.10;1.00;;;;;;5105582;28;20757;-86
2023/01/01 05:05:37;;;;;;;5.70;2.92;;;14.90;1.00;;;;;;5090945;28;20201;-85
2023/01/01 05:08:05;;;;;;;4.72;2.28;;;14.90;1.00;;;;;;5090919;28;20197;-85
2023/01/01 05:10:32;;;;;;;8.70;3.05;;;14.90;12.70;;;;;;5092855;28;20204;-86
2023/01/01 05:12:59;;;;;;;12.60;2.70;;;14.90;1.00;;;;;;5102239;28;20213;-86
2023/01/01 05:15:26;;;;;;;6.18;2.40;;;14.90;13.90;;;;;;5111710;28;20312;-85
2023/01/01 05:17:54;;;;;;;6.32;2.58;;;15.10;10.40;;;;;;5106942;28;20233;-86
2023/01/01 05:20:21;;;;;;;5.55;2.65;;;15.10;1.00;;;;;;5095073;28;20273;-86
2023/01/01 05:22:48;;;;;;;5.75;2.25;;;15.10;7.10;;;;;;5094721;28;20225;-85
2023/01/01 05:25:16;;;;;;;5.15;2.42;;;15.10;3.90;;;;;;5095163;28;20197;-86
2023/01/01 05:27:43;;;;;;;4.20;2.35;;;15.00;1.20;;;;;;5084134;28;20210;-86
2023/01/01 05:30:10;;;;;;;4.13;2.67;;;15.00;1.00;;;;;;5073136;28;20751;-86
2023/01/01 05:32:37;;;;;;;9.27;3.03;;;15.00;5.10;;;;;;5072981;28;20309;-86
2023/01/01 05:35:05;;;;;;;5.57;2.53;;;14.90;1.00;;;;;;5074549;28;20230;-86
2023/01/01 05:37:32;;;;;;;3.25;2.58;;;14.90;1.00;;;;;;5078168;28;20229;-86
2023/01/01 05:39:59;;;;;;;4.93;2.33;;;14.80;1.00;;;;;;5094911;28;20289;-87
2023/01/01 05:42:27;;;;;;;4.03;2.42;;;14.90;1.00;;;;;;5094504;28;20297;-86
2023/01/01 05:44:54;;;;;;;5.00;2.47;;;14.80;1.00;;;;;;5104824;28;20197;-87
2023/01/01 05:47:21;;;;;;;6.20;2.72;;;14.80;1.00;;;;;;5113537;28;20564;-86
2023/01/01 05:49:48;;;;;;;7.80;2.60;;;14.80;1.00;;;;;;5086829;28;20776;-87
2023/01/01 05:52:14;;;;;;;4.10;2.28;;;14.80;1.00;;;;;;5093516;28;20232;-86
2023/01/01 05:54:41;;;;;;;10.20;2.65;;;14.80;1.00;;;;;;5093989;28;20225;-86
2023/01/01 05:57:08;;;;;;;6.22;2.42;;;14.90;1.00;;;;;;5094123;28;20212;-86
2023/01/01 05:59:36;;;;;;;3.78;2.08;;;14.80;1.00;;;;;;5092492;28;20933;-86
2023/01/01 06:02:03;;;;;;;4.30;2.10;;;14.70;1.00;;;;;;5094038;28;20221;-87
2023/01/01 06:04:30;;;;;;;8.00;2.40;;;14.80;1.00;;;;;;5093818;28;20225;-86
2023/01/01 06:06:57;;;;;;;6.53;2.35;;;14.80;1.00;;;;;;5094341;28;20198;-87
2023/01/01 06:09:23;;;;;;;5.32;2.20;;;14.90;1.00;;;;;;5095236;28;20209;-86
2023/01/01 06:11:50;;;;;;;5.57;2.13;;;15.00;1.00;;;;;;5092758;28;20219;-86
2023/01/01 06:14:18;;;;;;;3.20;2.03;;;15.00;1.00;;;;;;5091944;28;20636;-85
2023/01/01 06:16:47;;;;;;;4.35;2.10;;;14.90;1.00;;;;;;5092263;28;20225;-82
2023/01/01 06:19:13;;;;;;;5.07;2.28;;;15.10;1.00;;;;;;5089744;28;20205;-87
2023/01/01 06:21:41;;;;;;;11.23;2.55;;;15.10;1.00;;;;;;5092244;28;20226;-85
2023/01/01 06:24:08;;;;;;;4.78;2.30;;;15.30;1.00;;;;;;5090850;28;20198;-85
2023/01/01 06:26:35;;;;;;;5.78;2.88;;;15.00;1.00;;;;;;5092792;28;20577;-85
2023/01/01 06:29:03;;;;;;;6.70;2.50;;;15.00;1.00;;;;;;5091583;28;20284;-86
2023/01/01 06:31:31;;;;;;;6.70;2.70;;;15.00;1.00;;;;;;5089574;28;20218;-86
2023/01/01 06:33:59;;;;;;;7.43;2.47;;;15.00;1.00;;;;;;5089340;28;20210;-85
2023/01/01 06:36:27;;;;;;;5.20;2.50;;;14.90;1.00;;;;;;5088585;28;20225;-85
2023/01/01 06:38:57;;;;;;;3.08;2.00;;;14.60;1.00;;;;;;5098395;28;20571;-85
2023/01/01 06:41:26;;;;;;;5.28;1.95;;;14.60;1.00;;;;;;5094682;28;20198;-86
2023/01/01 06:43:55;;;;;;;3.40;2.07;;;14.60;1.00;;;;;;5099410;28;20655;-85
2023/01/01 06:46:23;;;;;;;4.90;2.47;;;14.40;1.00;;;;;;5091058;28;20272;-85
2023/01/01 06:48:53;;;;;;;3.97;2.20;;;14.20;1.00;;;;;;5095817;28;20263;-86
2023/01/01 06:51:23;;;;;;;4.77;2.00;;;14.10;99.90;;;;;;5092435;28;20300;-86
2023/01/01 06:53:51;;;;;;;3.43;2.00;;;14.20;99.90;;;;;;5086802;28;20201;-86
2023/01/01 06:56:19;;;;;;;5.07;2.10;;;14.20;99.90;;;;;;5088222;28;20233;-86
2023/01/01 06:58:46;;;;;;;6.38;2.42;;;14.40;99.90;;;;;;5092344;28;20197;-85
2023/01/01 07:01:16;;;;;;;4.90;1.95;;;14.50;99.90;;;;;;5091499;28;20639;-85
2023/01/01 07:03:43;;;;;;;4.30;1.90;;;14.30;99.90;;;;;;5088361;28;20232;-86
2023/01/01 07:06:11;;;;;;;4.23;1.83;;;14.20;99.90;;;;;;5089488;28;20267;-85
2023/01/01 07:08:40;;;;;;;3.83;2.13;;;14.20;99.90;;;;;;5091574;28;20206;-86
2023/01/01 07:11:07;;;;;;;4.22;2.20;;;14.10;99.90;;;;;;5093657;28;20194;-86
2023/01/01 07:13:34;;;;;;;4.93;2.03;;;14.10;99.90;;;;;;5090440;28;20198;-86
2023/01/01 07:16:00;;;;;;;5.00;2.20;;;14.10;99.90;;;;;;5089933;28;20218;-86
2023/01/01 07:18:28;;;;;;;4.43;2.17;;;14.10;99.90;;;;;;5084796;28;20205;-86
2023/01/01 07:20:58;;;;;;;4.27;2.00;;;14.30;99.90;;;;;;5091863;28;20288;-86
2023/01/01 07:23:26;;;;;;;3.47;1.90;;;14.30;99.90;;;;;;5089742;28;20280;-86
2023/01/01 07:25:56;;;;;;;5.50;2.67;;;14.10;99.90;;;;;;5088562;28;20204;-86
2023/01/01 07:28:24;;;;;;;2.23;1.60;;;14.00;1.00;;;;;;5087980;28;20281;-86
2023/01/01 07:30:52;;;;;;;5.10;2.00;;;14.20;99.90;;;;;;5093867;28;20202;-86
2023/01/01 07:33:22;;;;;;;7.07;2.03;;;14.10;99.90;;;;;;5085992;28;20270;-86
2023/01/01 07:35:49;;;;;;;5.37;2.30;;;14.30;99.90;;;;;;5086092;28;20271;-86
2023/01/01 07:38:16;;;;;;;2.85;1.83;;;14.20;1.00;;;;;;5091863;28;20568;-86
2023/01/01 07:40:43;;;;;;;3.97;1.92;;;14.10;99.90;;;;;;5092796;28;20208;-86
2023/01/01 07:43:13;;;;;;;5.17;2.50;;;14.20;99.90;;;;;;5093310;28;20236;-86
2023/01/01 07:45:40;;;;;;;6.07;2.30;;;14.30;99.90;;;;;;5089121;28;20221;-86
2023/01/01 07:48:12;;;;;;;7.70;2.42;;;14.20;99.90;;;;;;5090233;28;20202;-86
2023/01/01 07:50:39;;;;;;;5.23;2.30;;;14.10;1.00;;;;;;5089445;28;20647;-86
2023/01/01 07:53:06;;;;;;;3.70;2.17;;;14.30;99.90;;;;;;5090080;28;20300;-86
2023/01/01 07:55:34;;;;;;;4.00;2.20;;;14.40;82.80;;;;;;5081219;28;20242;-86
2023/01/01 07:58:01;;;;;;;3.63;2.10;;;14.40;99.90;;;;;;5088041;28;20194;-85
2023/01/01 08:00:29;;;;;;;5.00;2.20;;;14.40;99.90;;;;;;5086694;28;20256;-84
2023/01/01 08:02:57;;;;;;;6.03;2.17;;;14.50;99.90;;;;;;5087841;28;20594;-85
2023/01/01 08:05:24;;;;;;;3.75;2.20;;;14.60;1.00;;;;;;5084968;28;20643;-85
2023/01/01 08:07:51;;;;;;;3.17;2.30;;;14.60;1.00;;;;;;5088575;28;20276;-85
2023/01/01 08:10:20;;;;;;;3.35;1.85;;;14.50;99.90;;;;;;5090381;28;20281;-85
2023/01/01 08:12:47;;;;;;;6.00;2.00;;;14.50;31.80;;;;;;5087199;28;20225;-85
2023/01/01 08:15:15;;;;;;;2.65;2.13;;;14.40;84.80;;;;;;5091148;28;20660;-85
2023/01/01 08:17:44;;;;;;;6.23;2.10;;;14.60;1.00;;;;;;5087754;28;20603;-85
2023/01/01 08:20:10;;;;;;;4.40;2.00;;;14.60;17.40;;;;;;5085299;28;20208;-85
2023/01/01 08:22:37;;;;;;;7.20;2.07;;;14.60;99.90;;;;;;5090444;28;20235;-85
2023/01/01 08:25:05;;;;;;;3.00;2.10;;;14.60;1.00;;;;;;5089609;28;20202;-86
2023/01/01 08:27:32;;;;;;;4.77;2.20;;;14.70;1.00;;;;;;5089204;28;20208;-85
2023/01/01 08:29:59;;;;;;;3.97;2.00;;;14.80;1.00;;;;;;5092924;28;20196;-85
2023/01/01 08:32:26;;;;;;;5.47;2.13;;;14.70;1.00;;;;;;5089784;28;20718;-85
2023/01/01 08:34:54;;;;;;;4.72;2.20;;;14.70;1.00;;;;;;5094155;28;20230;-86
2023/01/01 08:37:22;;;;;;;6.18;2.67;;;14.70;1.00;;;;;;5087387;28;20688;-86
2023/01/01 08:39:50;;;;;;;8.13;2.97;;;14.70;1.00;;;;;;5084946;28;20209;-85
2023/01/01 08:42:17;;;;;;;4.22;2.60;;;14.80;1.00;;;;;;5088956;28;20217;-85
2023/01/01 08:44:46;;;;;;;4.25;2.42;;;14.80;1.00;;;;;;5089456;28;20209;-85
2023/01/01 08:47:18;;;;;;;4.68;2.20;;;14.80;1.00;;;;;;5090220;28;20208;-88
2023/01/01 08:49:45;;;;;;;6.83;2.73;;;14.90;1.00;;;;;;5098821;28;20285;-83
2023/01/01 08:52:13;;;;;;;4.35;2.03;;;14.90;1.00;;;;;;5095206;28;20303;-84
2023/01/01 08:54:40;;;;;;;6.07;2.40;;;14.70;1.00;;;;;;5097633;28;20205;-84
2023/01/01 08:57:07;;;;;;;6.07;2.20;;;14.80;10.00;;;;;;5103792;28;20244;-85
2023/01/01 08:59:35;;;;;;;5.30;2.60;;;14.70;1.00;;;;;;5103863;28;20714;-84
2023/01/01 09:02:02;;;;;;;7.13;2.50;;;14.70;1.00;;;;;;5092882;28;20209;-84
2023/01/01 09:04:29;;;;;;;5.90;2.83;;;14.70;1.00;;;;;;5097873;28;20279;-85
2023/01/01 09:06:56;;;;;;;4.43;2.07;;;14.80;1.00;;;;;;5093240;28;20229;-85
2023/01/01 09:09:25;;;;;;;3.57;2.27;;;14.80;1.00;;;;;;5094922;28;20667;-85
2023/01/01 09:11:53;;;;;;;4.07;2.42;;;14.80;1.00;;;;;;5097849;28;20246;-86
2023/01/01 09:14:20;;;;;;;5.50;2.03;;;15.00;1.00;;;;;;5095052;28;20659;-84
2023/01/01 09:16:48;;;;;;;2.80;1.93;;;14.70;1.00;;;;;;5090871;28;20210;-85
2023/01/01 09:19:15;;;;;;;3.00;1.70;;;14.70;22.40;;;;;;5092753;28;20289;-83
2023/01/01 09:21:42;;;;;;;4.82;1.67;;;14.80;1.00;;;;;;5102598;28;20257;-83
2023/01/01 09:24:09;;;;;;;3.55;1.73;;;15.00;1.00;;;;;;5101842;28;20205;-83
2023/01/01 09:26:37;;;;;;;3.78;1.40;;;14.90;1.00;;;;;;5098992;28;20292;-82
2023/01/01 09:29:04;;;;;;;3.35;1.77;;;14.90;1.00;;;;;;5093859;28;20198;-82
2023/01/01 09:31:31;;;;;;;5.25;1.75;;;14.80;1.00;;;;;;5093939;28;20221;-81
2023/01/01 09:33:58;;;;;;;3.28;1.83;;;14.90;1.00;;;;;;5093806;28;20206;-82
2023/01/01 09:36:29;;;;;;;3.90;1.50;;;14.90;1.00;;;;;;5097824;28;20239;-82
2023/01/01 09:38:56;;;;;;;6.63;1.70;;;14.90;1.00;;;;;;5096481;28;20232;-81
2023/01/01 09:41:32;;;;;;;3.13;1.80;;;15.00;1.00;;;;;;5092706;28;20202;-82
2023/01/01 09:44:08;;;;;;;4.82;1.88;;;14.80;1.00;;;;;;5094816;28;20269;-82
2023/01/01 09:46:35;;;;;;;4.32;1.38;;;14.90;1.00;;;;;;5098234;28;20270;-81
2023/01/01 09:49:06;;;;;;;2.30;1.42;;;14.80;90.50;;;;;;5091897;28;20208;-82
2023/01/01 09:51:36;;;;;;;2.53;1.67;;;14.80;99.90;;;;;;5097883;28;20223;-83
2023/01/01 09:54:11;;;;;;;10.40;5.30;;;14.80;18.90;;;;;;5103048;28;20284;-82
2023/01/01 09:56:40;;;;;;;2.83;1.90;;;14.90;80.90;;;;;;5096602;28;20240;-83
2023/01/01 09:59:10;;;;;;;3.17;1.60;;;14.90;1.00;;;;;;5099591;28;20201;-83
2023/01/01 10:01:47;;;;;;;5.03;1.98;;;14.90;25.60;;;;;;5095008;28;20304;-82
2023/01/01 10:04:28;;;;;;;3.20;1.50;;;14.80;99.10;;;;;;5094448;28;20208;-83
2023/01/01 10:07:02;;;;;;;3.77;1.60;;;14.80;99.90;;;;;;5097224;28;20661;-82
2023/01/01 10:09:36;;;;;;;4.20;1.90;;;14.70;99.90;;;;;;5092556;28;20635;-83
2023/01/01 10:12:11;;;;;;;6.15;1.63;;;14.70;1.00;;;;;;5095832;28;20304;-83
2023/01/01 10:14:44;;;;;;;3.97;1.90;;;14.40;11.10;;;;;;5092512;28;20204;-84
2023/01/01 10:17:17;;;;;;;3.95;1.67;;;14.10;99.90;;;;;;5092155;28;20237;-82
2023/01/01 10:19:47;;;;;;;3.47;1.83;;;13.80;99.90;;;;;;5094574;28;20203;-82
2023/01/01 10:22:18;;;;;;;4.83;2.00;;;13.70;99.90;;;;;;5099587;28;20295;-82
2023/01/01 10:24:49;;;;;;;6.53;1.80;;;13.60;99.90;;;;;;5093660;28;20204;-81
2023/01/01 10:27:27;;;;;;;4.07;2.13;;;13.60;99.90;;;;;;5097559;28;20248;-81
2023/01/01 10:29:56;;;;;;;2.50;1.80;;;13.60;99.90;;;;;;5094196;28;20201;-81
2023/01/01 10:32:29;;;;;;;6.83;2.37;;;13.50;99.90;;;;;;5099349;28;20304;-81
2023/01/01 10:34:57;;;;;;;2.87;1.47;;;13.50;99.90;;;;;;5095549;28;20724;-82
2023/01/01 10:37:25;;;;;;;4.33;1.93;;;13.50;99.90;;;;;;5095328;28;20229;-83
2023/01/01 10:39:52;;;;;;;5.03;2.20;;;13.40;99.90;;;;;;5095937;28;20202;-82
2023/01/01 10:42:19;;;;;;;4.30;2.10;;;13.40;99.90;;;;;;5088866;28;20228;-83
2023/01/01 10:44:46;;;;;;;3.87;2.00;;;13.40;99.90;;;;;;5095067;28;20197;-84
2023/01/01 10:47:25;;;;;;;3.60;1.97;;;13.30;99.90;;;;;;5096803;28;20214;-83
2023/01/01 10:49:57;;;;;;;3.30;1.77;;;13.30;99.90;;;;;;5096186;28;20253;-84
2023/01/01 10:52:36;;;;;;;4.40;1.97;;;13.30;99.90;;;;;;5093353;28;20289;-85
2023/01/01 10:55:03;;;;;;;4.40;1.70;;;13.30;99.90;;;;;;5096079;28;20684;-84
2023/01/01 10:57:34;;;;;;;4.90;2.10;;;13.30;99.90;;;;;;5093234;28;20285;-84
2023/01/01 11:00:23;;;;;;;5.63;1.77;;;13.20;99.90;;;;;;5092921;28;20651;-84
2023/01/01 11:06:10;;;;;;;7.33;3.57;;;13.20;99.90;;;;;;5135265;27;20572;-84
2023/01/01 11:08:40;;;;;;;6.23;2.33;;;13.20;99.90;;;;;;5135503;28;20208;-84
2023/01/01 11:11:07;;;;;;;4.13;2.17;;;13.10;99.90;;;;;;5132565;27;20192;-83
2023/01/01 11:13:34;;;;;;;5.53;2.33;;;13.00;99.90;;;;;;5128242;27;20238;-83
2023/01/01 11:16:01;;;;;;;6.77;1.97;;;12.90;99.90;;;;;;5135339;27;20291;-83
2023/01/01 11:18:34;;;;;;;5.63;2.50;;;12.90;99.90;;;;;;5124997;27;20576;-83
2023/01/01 11:21:05;;;;;;;4.37;2.27;;;12.90;99.90;;;;;;5126940;28;20575;-83
2023/01/01 11:23:34;;;;;;;5.53;2.53;;;12.80;99.90;;;;;;5133716;27;20311;-83
2023/01/01 11:26:04;;;;;;;4.17;2.03;;;12.70;99.90;;;;;;5126151;27;20228;-83
2023/01/01 11:28:33;;;;;;;2.67;1.87;;;12.70;99.90;;;;;;5136766;27;20230;-83
2023/01/01 11:31:05;;;;;;;5.87;2.00;;;12.80;99.90;;;;;;5128542;27;20292;-82
2023/01/01 11:33:35;;;;;;;3.63;2.00;;;12.70;99.90;;;;;;5126988;27;20242;-82
2023/01/01 11:36:06;;;;;;;7.20;2.03;;;12.80;99.90;;;;;;5126650;27;20618;-82
2023/01/01 11:38:33;;;;;;;7.77;2.53;;;12.90;99.90;;;;;;5130976;28;20220;-82
2023/01/01 11:41:04;;;;;;;4.27;2.00;;;12.80;99.90;;;;;;5130691;27;20201;-82
2023/01/01 11:43:38;;;;;;;3.10;1.90;;;12.70;99.90;;;;;;5132383;28;20208;-82
2023/01/01 11:46:09;;;;;;;2.77;1.90;;;12.70;99.90;;;;;;5133061;27;20200;-83
2023/01/01 11:48:40;;;;;;;3.33;1.90;;;12.70;99.90;;;;;;5136568;28;20205;-83
2023/01/01 11:51:11;;;;;;;5.37;2.50;;;12.80;99.90;;;;;;5140531;27;20239;-83
2023/01/01 11:53:40;;;;;;;4.00;2.27;;;12.70;99.90;;;;;;5138026;27;20193;-82
2023/01/01 11:56:13;;;;;;;4.77;2.60;;;12.70;99.90;;;;;;5139005;27;20271;-83
2023/01/01 11:58:47;;;;;;;6.00;2.27;;;12.60;99.90;;;;;;5138536;28;20236;-82
2023/01/01 12:01:19;;;;;;;1.97;1.70;;;12.60;99.90;;;;;;5138460;27;20185;-83
2023/01/01 12:03:53;;;;;;;4.07;1.70;;;12.50;99.90;;;;;;5137841;27;20332;-83
2023/01/01 12:06:26;;;;;;;4.20;1.80;;;12.60;99.90;;;;;;5136202;27;20200;-84
2023/01/01 12:09:02;;;;;;;7.57;3.30;;;12.40;99.90;;;;;;5131284;27;20288;-82
2023/01/01 12:11:34;;;;;;;4.07;2.30;;;12.40;99.90;;;;;;5116843;28;20300;-83
2023/01/01 12:14:13;;;;;;;4.17;1.70;;;12.30;99.90;;;;;;5115861;28;20569;-83
2023/01/01 12:16:50;;;;;;;7.13;3.67;;;12.40;99.90;;;;;;5104570;28;20205;-83
2023/01/01 12:19:23;;;;;;;5.93;4.37;;;12.40;99.90;;;;;;5101946;28;20186;-83
2023/01/01 12:21:58;;;;;;;4.93;3.10;;;12.40;99.90;;;;;;5101983;28;20231;-84
2023/01/01 12:24:30;;;;;;;4.73;2.60;;;12.40;99.90;;;;;;5102286;28;20224;-84
2023/01/01 12:27:13;;;;;;;7.40;3.47;;;12.50;99.90;;;;;;5109952;28;20217;-83
2023/01/01 12:29:57;;;;;;;3.57;2.40;;;12.40;99.90;;;;;;5112532;28;20209;-84
2023/01/01 12:32:33;;;;;;;3.43;1.63;;;12.40;99.90;;;;;;5101173;28;20220;-83
2023/01/01 12:35:11;;;;;;;1.93;1.20;;;12.50;99.90;;;;;;5101246;28;20548;-83
2023/01/01 12:37:51;;;;;;;2.37;1.30;;;12.40;99.90;;;;;;5100949;28;20272;-84
2023/01/01 12:40:38;;;;;;;5.47;1.10;;;12.40;99.90;;;;;;5101599;28;20192;-83
2023/01/01 12:43:09;;;;;;;3.17;1.03;;;12.40;99.90;;;;;;5112262;28;20216;-84
2023/01/01 12:46:03;;;;;;;4.17;1.57;;;12.40;99.90;;;;;;5121701;28;20582;-83
2023/01/01 12:48:37;;;;;;;3.00;1.40;;;12.40;99.90;;;;;;5123097;28;20207;-83
2023/01/01 12:51:17;;;;;;;2.47;1.57;;;12.40;99.90;;;;;;5125380;28;20211;-84
2023/01/01 12:53:55;;;;;;;3.20;2.00;;;12.40;99.90;;;;;;5121908;28;20207;-84
2023/01/01 12:56:30;;;;;;;3.43;1.83;;;12.50;99.90;;;;;;5121580;28;20260;-83
2023/01/01 12:59:01;;;;;;;4.00;1.70;;;12.50;99.90;;;;;;5101766;28;20174;-84
2023/01/01 13:01:31;;;;;;;2.27;1.60;;;12.50;99.90;;;;;;5106367;28;20216;-85
2023/01/01 13:04:00;;;;;;;2.67;1.40;;;12.60;99.90;;;;;;5121166;28;20562;-84
2023/01/01 13:06:33;;;;;;;3.27;1.87;;;12.70;99.90;;;;;;5115547;28;20301;-84
2023/01/01 13:09:06;;;;;;;4.27;1.70;;;12.70;99.90;;;;;;5112641;28;20205;-85
2023/01/01 13:11:35;;;;;;;3.33;2.00;;;12.70;99.90;;;;;;5120188;28;20221;-84
2023/01/01 13:14:02;;;;;;;3.10;1.60;;;12.80;99.90;;;;;;5121637;28;20296;-84